Time;durP1;ratioP1;P1;durP2;ratioP2;P2;SDS_P1;SDS_P2;PMS_P1;PMS_P2;Temp;Humidity;BMP_temperature;BMP_pressure;BME280_temperature;BME280_humidity;BME280_pressure;Samples;Min_cycle;Max_cycle;Signal;HPM_P1;HPM_P2
2021/10/22 00:01:26;;;;;;;14.57;10.87;;;;;;;11.14;88.78;95072.31;5052531;28;20450;-83
2021/10/22 00:03:54;;;;;;;14.27;10.57;;;;;;;11.14;88.44;95066.22;5033467;28;20436;-83
2021/10/22 00:06:20;;;;;;;17.00;10.13;;;;;;;11.13;88.51;95068.03;5052626;28;20457;-83
2021/10/22 00:08:47;;;;;;;18.30;11.07;;;;;;;11.10;88.30;95063.03;5052316;28;20460;-83
2021/10/22 00:11:15;;;;;;;13.70;10.60;;;;;;;11.08;88.45;95069.38;5052242;28;20446;-83
2021/10/22 00:13:41;;;;;;;13.53;11.00;;;;;;;11.07;88.66;95067.72;5051983;28;20535;-83
2021/10/22 00:16:09;;;;;;;12.37;10.50;;;;;;;11.09;88.65;95069.25;5052710;28;20442;-83
2021/10/22 00:18:37;;;;;;;12.90;10.40;;;;;;;11.07;89.01;95073.81;5051955;28;20446;-84
2021/10/22 00:21:04;;;;;;;15.73;10.73;;;;;;;11.09;87.66;95077.13;5052370;28;20468;-83
2021/10/22 00:23:31;;;;;;;12.93;10.77;;;;;;;11.04;88.10;95078.47;5052148;28;20454;-83
2021/10/22 00:25:58;;;;;;;22.83;11.70;;;;;;;10.98;88.75;95068.47;5051995;28;21018;-82
2021/10/22 00:28:25;;;;;;;16.10;9.90;;;;;;;10.96;88.51;95060.72;5052109;28;20949;-82
2021/10/22 00:30:52;;;;;;;18.50;10.03;;;;;;;10.92;89.33;95074.25;5051909;28;20478;-85
2021/10/22 00:33:19;;;;;;;16.87;11.90;;;;;;;10.91;89.39;95065.53;5051971;28;20535;-83
2021/10/22 00:35:47;;;;;;;16.67;10.57;;;;;;;10.93;89.43;95068.84;5051925;28;20438;-83
2021/10/22 00:38:14;;;;;;;14.73;10.63;;;;;;;10.90;88.71;95073.53;5051979;28;20862;-83
2021/10/22 00:40:41;;;;;;;13.07;9.77;;;;;;;10.80;89.86;95058.56;5052368;28;20452;-83
2021/10/22 00:43:08;;;;;;;15.97;10.00;;;;;;;10.82;90.04;95063.69;5051982;28;20446;-83
2021/10/22 00:45:36;;;;;;;11.20;10.03;;;;;;;10.82;89.37;95063.69;5052118;28;20454;-83
2021/10/22 00:48:03;;;;;;;13.60;10.40;;;;;;;10.83;89.31;95060.09;5051806;28;20442;-83
2021/10/22 00:50:30;;;;;;;12.23;10.10;;;;;;;10.81;89.69;95056.75;5017073;28;20442;-82
2021/10/22 00:52:58;;;;;;;16.30;11.50;;;;;;;10.79;89.75;95058.69;5053898;28;20516;-83
2021/10/22 00:55:25;;;;;;;16.97;9.97;;;;;;;10.77;89.16;95069.31;5037399;28;20438;-83
2021/10/22 00:57:52;;;;;;;11.37;10.10;;;;;;;10.70;89.15;95059.47;5037315;28;20492;-83
2021/10/22 01:00:20;;;;;;;16.93;11.13;;;;;;;10.66;90.13;95064.09;5055849;28;20450;-82
2021/10/22 01:02:47;;;;;;;11.03;9.40;;;;;;;10.61;90.20;95068.06;5037676;28;20886;-83
2021/10/22 01:05:15;;;;;;;12.20;10.00;;;;;;;10.59;90.31;95056.88;5055954;28;20450;-83
2021/10/22 01:07:43;;;;;;;19.77;9.90;;;;;;;10.59;89.65;95059.47;5056031;28;20450;-84
2021/10/22 01:10:13;;;;;;;14.50;11.07;;;;;;;10.56;90.76;95055.31;5055781;28;20438;-83
2021/10/22 01:12:41;;;;;;;15.47;11.10;;;;;;;10.59;90.16;95056.88;5055280;28;20481;-83
2021/10/22 01:15:09;;;;;;;12.00;10.30;;;;;;;10.60;90.07;95064.59;5055724;28;20977;-84
2021/10/22 01:17:39;;;;;;;23.77;11.80;;;;;;;10.59;90.44;95056.88;5055743;28;20781;-84
2021/10/22 01:20:09;;;;;;;16.10;11.00;;;;;;;10.55;90.21;95065.00;5036903;28;20496;-83
2021/10/22 01:22:38;;;;;;;15.53;9.17;;;;;;;10.59;89.88;95067.34;5036956;28;20442;-84
2021/10/22 01:25:07;;;;;;;17.27;10.13;;;;;;;10.57;89.49;95066.66;5055451;28;20446;-83
2021/10/22 01:27:34;;;;;;;15.70;10.97;;;;;;;10.56;90.40;95071.06;5055804;28;20445;-83
2021/10/22 01:30:01;;;;;;;13.60;9.87;;;;;;;10.51;90.21;95071.44;5055219;28;20474;-82
2021/10/22 01:32:28;;;;;;;11.60;9.70;;;;;;;10.47;90.71;95072.66;5036519;28;20453;-83
2021/10/22 01:34:55;;;;;;;14.37;9.80;;;;;;;10.49;90.03;95075.16;5036431;28;20946;-83
2021/10/22 01:37:22;;;;;;;13.30;9.43;;;;;;;10.47;90.63;95070.03;5055160;28;20446;-83
2021/10/22 01:39:51;;;;;;;14.00;10.13;;;;;;;10.46;90.74;95068.38;5055147;28;20446;-83
2021/10/22 01:42:18;;;;;;;12.27;10.00;;;;;;;10.46;90.12;95073.63;5055356;28;20446;-83
2021/10/22 01:44:45;;;;;;;12.47;10.10;;;;;;;10.47;90.08;95064.78;5055034;28;20456;-83
2021/10/22 01:47:12;;;;;;;13.10;9.33;;;;;;;10.47;89.91;95069.19;5055213;28;21140;-83
2021/10/22 01:49:39;;;;;;;12.83;9.87;;;;;;;10.45;90.42;95082.44;5055174;28;20440;-84
2021/10/22 01:52:07;;;;;;;17.13;10.20;;;;;;;10.51;90.97;95079.31;5054870;28;20974;-83
2021/10/22 01:54:34;;;;;;;17.60;10.67;;;;;;;10.53;90.67;95074.78;5019678;28;20849;-83
2021/10/22 01:57:03;;;;;;;12.60;9.80;;;;;;;10.55;89.92;95082.53;5054914;28;20443;-83
2021/10/22 01:59:30;;;;;;;9.20;8.20;;;;;;;10.57;90.42;95083.22;5055125;28;20453;-83
2021/10/22 02:01:57;;;;;;;15.63;10.10;;;;;;;10.57;90.16;95074.53;5055086;28;20568;-84
2021/10/22 02:04:24;;;;;;;11.63;9.90;;;;;;;10.54;89.54;95070.38;5054240;28;20453;-84
2021/10/22 02:06:51;;;;;;;15.30;10.07;;;;;;;10.54;90.42;95070.38;5036035;28;20447;-84
2021/10/22 02:09:19;;;;;;;13.87;9.93;;;;;;;10.49;89.97;95078.63;5036034;28;20438;-84
2021/10/22 02:11:46;;;;;;;13.03;10.43;;;;;;;10.49;89.80;95081.25;5054506;28;20446;-84
2021/10/22 02:14:15;;;;;;;11.93;10.30;;;;;;;10.46;89.55;95078.03;5054457;28;20493;-84
2021/10/22 02:16:43;;;;;;;11.53;9.50;;;;;;;10.41;89.38;95073.16;5054502;28;20503;-84
2021/10/22 02:19:10;;;;;;;14.23;10.27;;;;;;;10.41;89.85;95081.03;5054358;28;20537;-85
2021/10/22 02:21:37;;;;;;;15.20;10.07;;;;;;;10.41;89.63;95083.66;5054357;28;20426;-84
2021/10/22 02:24:05;;;;;;;17.63;10.47;;;;;;;10.32;90.76;95079.13;5054412;28;20449;-84
2021/10/22 02:26:32;;;;;;;14.13;9.80;;;;;;;10.33;90.70;95077.34;5054295;28;20929;-84
2021/10/22 02:28:59;;;;;;;11.63;10.40;;;;;;;10.31;90.65;95080.09;5054174;28;20815;-85
2021/10/22 02:31:28;;;;;;;12.20;10.40;;;;;;;10.32;90.43;95084.38;5035223;28;20906;-85
2021/10/22 02:33:55;;;;;;;10.80;8.93;;;;;;;10.34;90.27;95092.13;5053871;28;20488;-84
2021/10/22 02:36:22;;;;;;;11.77;9.50;;;;;;;10.29;89.94;95092.50;5054462;28;20571;-82
2021/10/22 02:38:49;;;;;;;13.00;10.20;;;;;;;10.27;90.20;95099.66;5035188;28;20525;-83
2021/10/22 02:41:17;;;;;;;14.80;10.00;;;;;;;10.29;89.72;95100.38;5035636;28;20442;-83
2021/10/22 02:43:44;;;;;;;10.50;8.87;;;;;;;10.30;89.85;95103.81;5054130;28;20450;-83
2021/10/22 02:46:11;;;;;;;15.90;10.23;;;;;;;10.30;89.73;95103.81;5053718;28;20962;-83
2021/10/22 02:48:39;;;;;;;16.40;9.80;;;;;;;10.27;90.24;95118.03;5053904;28;20953;-84
2021/10/22 02:51:06;;;;;;;10.30;8.40;;;;;;;10.31;89.81;95110.72;5054037;28;20450;-84
2021/10/22 02:53:33;;;;;;;12.40;9.10;;;;;;;10.36;89.90;95109.41;5053634;28;20487;-84
2021/10/22 02:56:00;;;;;;;16.20;10.83;;;;;;;10.40;89.96;95117.84;5053631;28;20800;-83
2021/10/22 02:58:27;;;;;;;11.90;9.93;;;;;;;10.40;89.92;95126.56;5053650;28;20438;-83
2021/10/22 03:00:54;;;;;;;12.40;9.90;;;;;;;10.42;89.43;95123.84;5053613;28;20446;-84
2021/10/22 03:03:21;;;;;;;15.10;10.63;;;;;;;10.41;89.11;95132.66;5034893;28;20454;-84
2021/10/22 03:05:49;;;;;;;14.70;9.87;;;;;;;10.43;89.61;95133.38;5053695;28;20442;-84
2021/10/22 03:08:16;;;;;;;13.10;10.57;;;;;;;10.42;89.11;95137.78;5053485;28;20521;-84
2021/10/22 03:10:43;;;;;;;13.03;10.43;;;;;;;10.43;89.41;95134.22;5053321;28;20448;-83
2021/10/22 03:13:10;;;;;;;15.40;10.40;;;;;;;10.42;89.83;95139.59;5053518;28;20461;-84
2021/10/22 03:15:37;;;;;;;14.80;10.33;;;;;;;10.42;89.69;95144.81;5052245;28;20442;-83
2021/10/22 03:18:04;;;;;;;17.90;11.60;;;;;;;10.33;89.73;95146.38;5053338;28;20454;-83
2021/10/22 03:20:31;;;;;;;11.50;9.80;;;;;;;10.27;90.55;95141.63;5018107;28;20450;-84
2021/10/22 03:22:59;;;;;;;11.30;10.10;;;;;;;10.29;90.05;95146.75;5053126;28;20529;-83
2021/10/22 03:25:26;;;;;;;13.43;10.90;;;;;;;10.27;90.15;95131.13;5053228;28;20563;-83
2021/10/22 03:27:53;;;;;;;16.80;9.50;;;;;;;10.26;90.55;95139.13;5053039;28;20452;-84
2021/10/22 03:30:20;;;;;;;13.40;9.90;;;;;;;10.26;90.32;95133.88;5053029;28;20490;-84
2021/10/22 03:32:47;;;;;;;18.40;11.27;;;;;;;10.26;89.76;95139.97;5053015;28;20442;-85
2021/10/22 03:35:14;;;;;;;13.97;10.50;;;;;;;10.26;89.81;95136.50;5052990;28;20477;-83
2021/10/22 03:37:41;;;;;;;13.10;10.17;;;;;;;10.22;91.03;95135.91;5034414;28;20446;-83
2021/10/22 03:40:11;;;;;;;14.77;10.43;;;;;;;10.16;91.55;95126.72;5052779;28;20817;-83
2021/10/22 03:42:38;;;;;;;17.43;10.67;;;;;;;10.16;91.71;95139.00;5052652;28;20448;-84
2021/10/22 03:45:06;;;;;;;12.73;10.20;;;;;;;10.16;91.61;95141.63;5052980;28;20441;-84
2021/10/22 03:47:33;;;;;;;14.80;10.60;;;;;;;10.16;91.13;95139.00;5053068;28;20449;-83
2021/10/22 03:50:00;;;;;;;13.57;10.73;;;;;;;10.14;91.67;95135.66;5053036;28;20442;-83
2021/10/22 03:52:27;;;;;;;12.50;10.10;;;;;;;10.09;92.20;95129.94;5052909;28;20450;-83
2021/10/22 03:54:54;;;;;;;16.53;10.67;;;;;;;10.15;92.48;95137.34;5052611;28;20847;-83
2021/10/22 03:57:25;;;;;;;13.10;10.10;;;;;;;10.18;92.73;95131.84;5052443;28;20968;-84
2021/10/22 03:59:52;;;;;;;13.83;11.17;;;;;;;10.09;93.21;95137.78;5052675;28;20442;-83
2021/10/22 04:02:19;;;;;;;18.07;12.07;;;;;;;10.15;93.66;95139.94;5052658;28;20438;-84
2021/10/22 04:04:46;;;;;;;12.10;10.83;;;;;;;10.20;93.53;95140.41;5052456;28;20450;-84
2021/10/22 04:07:13;;;;;;;16.00;11.60;;;;;;;10.24;93.30;95139.25;5052564;28;20445;-83
2021/10/22 04:09:40;;;;;;;14.87;11.20;;;;;;;10.26;92.83;95145.19;5052332;28;20438;-83
2021/10/22 04:12:07;;;;;;;14.93;10.70;;;;;;;10.21;91.74;95145.56;5052878;28;20450;-83
2021/10/22 04:14:36;;;;;;;14.53;11.40;;;;;;;10.20;92.46;95140.41;5052227;28;20477;-83
2021/10/22 04:17:03;;;;;;;14.20;9.73;;;;;;;10.19;92.45;95130.88;5052582;28;20443;-83
2021/10/22 04:19:30;;;;;;;16.47;11.30;;;;;;;10.19;93.54;95138.75;5052110;28;20445;-84
2021/10/22 04:21:57;;;;;;;13.73;10.40;;;;;;;10.15;94.18;95129.47;5052410;28;20796;-85
2021/10/22 04:24:24;;;;;;;19.50;11.53;;;;;;;10.20;93.62;95132.56;5017177;28;20450;-85
2021/10/22 04:26:51;;;;;;;16.53;11.17;;;;;;;10.30;93.92;95140.53;5051875;28;20442;-85
2021/10/22 04:29:18;;;;;;;15.27;12.03;;;;;;;10.37;93.30;95132.06;5052232;28;20476;-85
2021/10/22 04:31:47;;;;;;;12.63;11.33;;;;;;;10.39;93.07;95129.31;5051993;28;20841;-84
2021/10/22 04:34:14;;;;;;;21.93;11.57;;;;;;;10.40;92.44;95125.72;5017218;28;20569;-83
2021/10/22 04:36:42;;;;;;;18.03;12.03;;;;;;;10.37;92.03;95125.97;5051832;28;20446;-83
2021/10/22 04:41:53;;;;;;;16.57;11.23;;;;;;;10.42;92.33;95132.53;5052538;28;20434;-84
2021/10/22 04:44:21;;;;;;;18.60;12.87;;;;;;;10.44;91.71;95128.00;5053260;28;20537;-84
2021/10/22 04:46:49;;;;;;;32.13;15.83;;;;;;;10.29;90.85;95139.72;5052846;28;20853;-84
2021/10/22 04:49:17;;;;;;;23.17;15.30;;;;;;;10.27;90.22;95140.78;5053042;28;20458;-84
2021/10/22 04:51:44;;;;;;;34.13;15.23;;;;;;;10.23;89.86;95141.03;5053144;28;20837;-90
2021/10/22 04:54:11;;;;;;;24.70;17.50;;;;;;;10.20;89.18;95145.66;5053136;28;20927;-81
2021/10/22 04:56:37;;;;;;;51.23;33.33;;;;;;;10.08;89.05;95144.81;5052750;28;20441;-81
2021/10/22 04:59:04;;;;;;;60.40;34.73;;;;;;;10.02;89.82;95147.94;5053167;28;20442;-83
2021/10/22 05:01:32;;;;;;;53.67;32.90;;;;;;;10.02;90.05;95142.69;5053080;28;20489;-83
2021/10/22 05:14:06;;;;;;;45.87;27.90;;;;;;;11.39;86.06;95163.03;5052147;28;20512;-82
2021/10/22 05:16:33;;;;;;;45.60;26.20;;;;;;;12.18;82.04;95175.66;5018764;28;20801;-84
2021/10/22 05:19:00;;;;;;;40.43;25.10;;;;;;;12.94;81.31;95172.38;5052733;28;20449;-84
2021/10/22 05:21:27;;;;;;;41.80;22.90;;;;;;;13.75;82.23;95166.78;5053344;28;20442;-84
2021/10/22 05:23:54;;;;;;;47.63;22.90;;;;;;;14.24;78.25;95174.41;5053254;28;20444;-84
2021/10/22 05:26:21;;;;;;;39.13;21.00;;;;;;;14.96;70.22;95178.06;5053037;28;20434;-85
2021/10/22 05:28:48;;;;;;;32.23;17.40;;;;;;;15.57;67.29;95192.34;5052789;28;20446;-85
2021/10/22 05:31:16;;;;;;;38.10;20.73;;;;;;;15.96;63.97;95191.03;5053134;28;20484;-85
2021/10/22 05:33:43;;;;;;;29.43;19.27;;;;;;;16.26;63.07;95194.19;5053041;28;20431;-84
2021/10/22 05:36:10;;;;;;;34.20;20.83;;;;;;;16.62;61.73;95193.03;5052647;28;20426;-84
2021/10/22 05:38:37;;;;;;;36.03;22.93;;;;;;;16.91;61.36;95202.44;5054380;28;20496;-85
2021/10/22 05:41:05;;;;;;;40.10;27.37;;;;;;;17.21;60.13;95198.38;5056296;28;21013;-86
2021/10/22 05:43:32;;;;;;;35.57;26.27;;;;;;;17.41;59.48;95202.38;5056426;28;20511;-85
2021/10/22 05:45:59;;;;;;;45.27;28.23;;;;;;;17.69;62.11;95202.09;5056183;28;20524;-84
2021/10/22 05:48:39;;;;;;;41.63;30.10;;;;;;;18.02;58.40;95216.19;5056140;28;20430;-85
2021/10/22 05:51:06;;;;;;;35.07;26.43;;;;;;;17.84;56.74;95225.16;5021516;28;20456;-85
2021/10/22 05:53:33;;;;;;;49.63;33.20;;;;;;;17.70;58.40;95223.16;5056317;28;20621;-84
2021/10/22 05:56:02;;;;;;;47.73;32.73;;;;;;;17.59;58.60;95223.44;5056184;28;20480;-85
2021/10/22 05:58:29;;;;;;;63.50;34.00;;;;;;;17.69;59.47;95224.16;5056671;28;20818;-84
2021/10/22 06:00:56;;;;;;;50.67;33.63;;;;;;;17.86;58.04;95238.25;5055889;28;20431;-83
2021/10/22 06:03:23;;;;;;;44.10;29.53;;;;;;;17.98;58.17;95230.81;5055913;28;20451;-81
2021/10/22 06:05:53;;;;;;;41.27;28.60;;;;;;;18.03;58.05;95239.91;5055569;28;20485;-84
2021/10/22 06:08:20;;;;;;;38.40;27.70;;;;;;;18.03;58.20;95239.91;5055728;28;20445;-84
2021/10/22 06:10:48;;;;;;;32.40;24.87;;;;;;;18.09;57.98;95243.72;5055895;28;20430;-84
2021/10/22 06:13:15;;;;;;;61.63;32.97;;;;;;;18.09;57.83;95249.03;5055877;28;20982;-83
2021/10/22 06:15:43;;;;;;;45.03;27.93;;;;;;;18.14;58.03;95244.88;5055479;28;20478;-84
2021/10/22 06:18:10;;;;;;;34.17;24.30;;;;;;;18.20;69.97;95246.84;5056402;28;20435;-81
2021/10/22 06:20:44;;;;;;;45.87;28.70;;;;;;;18.35;63.80;95244.38;5055391;28;20942;-83
2021/10/22 06:25:53;;;;;;;46.10;24.87;;;;;;;18.29;58.39;95249.53;5013722;28;20424;-84
2021/10/22 06:28:20;;;;;;;44.03;22.33;;;;;;;18.07;59.29;95243.06;5013297;28;20962;-83
2021/10/22 06:30:49;;;;;;;57.50;20.67;;;;;;;17.96;59.48;95244.25;4964375;28;20594;-84
2021/10/22 06:33:16;;;;;;;26.37;17.50;;;;;;;17.87;59.46;95243.41;5013109;28;20491;-84
2021/10/22 06:35:45;;;;;;;26.40;18.90;;;;;;;17.70;60.07;95248.88;5013204;28;21026;-85
2021/10/22 06:38:13;;;;;;;29.90;16.93;;;;;;;17.55;60.69;95256.63;5013409;28;20507;-85
2021/10/22 06:40:41;;;;;;;20.67;16.50;;;;;;;17.55;60.49;95256.63;5012828;28;20458;-84
2021/10/22 06:43:09;;;;;;;24.87;16.23;;;;;;;17.48;60.31;95258.28;5011649;28;20439;-84
2021/10/22 06:45:36;;;;;;;30.93;16.30;;;;;;;17.51;61.18;95261.44;5013346;28;20447;-84
2021/10/22 06:48:03;;;;;;;23.57;17.40;;;;;;;17.50;61.27;95262.41;4980617;28;20445;-84
2021/10/22 06:50:30;;;;;;;27.07;18.27;;;;;;;17.49;61.47;95274.03;5012997;28;20943;-84
2021/10/22 06:52:57;;;;;;;29.67;19.73;;;;;;;17.31;61.62;95268.00;5012887;28;21219;-85
2021/10/22 06:55:26;;;;;;;39.63;24.67;;;;;;;17.17;62.28;95269.47;5012924;28;20471;-84
2021/10/22 06:57:53;;;;;;;34.13;22.20;;;;;;;17.02;63.58;95277.19;4980656;28;20444;-83
2021/10/22 07:00:20;;;;;;;31.30;19.97;;;;;;;16.99;64.10;95266.09;4980794;28;20825;-84
2021/10/22 07:02:48;;;;;;;27.83;18.80;;;;;;;16.95;64.50;95276.19;4980632;28;20449;-83
2021/10/22 07:05:26;;;;;;;24.80;18.57;;;;;;;16.93;64.46;95261.44;5055217;28;20956;-83
2021/10/22 07:07:53;;;;;;;24.87;17.37;;;;;;;16.76;64.51;95272.94;5055272;28;20486;-81
2021/10/22 07:10:20;;;;;;;28.60;19.90;;;;;;;16.67;66.39;95272.06;5054522;28;20519;-83
2021/10/22 07:12:49;;;;;;;32.20;20.40;;;;;;;16.56;67.18;95275.81;5054205;28;20542;-84
2021/10/22 07:15:17;;;;;;;30.63;19.17;;;;;;;16.53;67.27;95276.13;5054726;28;20563;-83
2021/10/22 07:17:45;;;;;;;28.90;17.87;;;;;;;16.47;67.78;95276.72;5054330;28;20981;-83
2021/10/22 07:20:13;;;;;;;23.20;17.10;;;;;;;16.49;68.19;95274.78;5054246;28;20941;-83
2021/10/22 07:22:48;;;;;;;33.37;20.00;;;;;;;16.42;67.84;95276.38;5002879;28;20450;-83
2021/10/22 07:25:15;;;;;;;24.77;18.67;;;;;;;15.93;69.15;95267.25;5053059;28;20454;-83
2021/10/22 07:27:42;;;;;;;32.37;20.67;;;;;;;15.61;70.63;95273.94;5052771;28;20895;-83
2021/10/22 07:30:11;;;;;;;22.77;19.03;;;;;;;15.51;71.73;95273.13;5052798;28;20519;-83
2021/10/22 07:32:39;;;;;;;27.23;18.67;;;;;;;15.23;74.03;95263.59;5052925;28;20810;-84
2021/10/22 07:35:07;;;;;;;28.03;20.50;;;;;;;15.23;75.20;95271.53;5052552;28;20514;-84
2021/10/22 07:37:34;;;;;;;29.63;17.57;;;;;;;15.30;75.32;95269.94;5052874;28;20445;-83
2021/10/22 07:40:01;;;;;;;22.90;17.40;;;;;;;15.42;75.53;95269.59;5034027;28;20456;-83
2021/10/22 07:42:28;;;;;;;21.03;16.33;;;;;;;15.05;73.60;95263.59;5051097;28;20533;-83
2021/10/22 07:44:57;;;;;;;26.93;17.87;;;;;;;15.20;74.63;95262.06;5042702;28;20438;-84
2021/10/22 07:47:26;;;;;;;28.00;18.87;;;;;;;15.04;74.21;95265.38;5041427;28;21039;-82
2021/10/22 07:49:54;;;;;;;24.20;17.27;;;;;;;15.17;74.58;95263.22;5041201;28;20534;-84
2021/10/22 07:52:22;;;;;;;24.03;17.33;;;;;;;15.35;74.86;95268.53;5042058;28;20846;-84
2021/10/22 07:54:50;;;;;;;22.27;16.57;;;;;;;15.58;74.61;95270.72;5044907;28;20490;-85
2021/10/22 07:57:18;;;;;;;26.27;17.13;;;;;;;15.65;73.46;95267.38;5044731;28;20441;-84
2021/10/22 07:59:45;;;;;;;29.07;18.00;;;;;;;15.31;74.40;95269.78;5045952;28;20956;-84
2021/10/22 08:02:14;;;;;;;22.70;16.00;;;;;;;15.37;74.06;95265.72;5032911;28;20502;-84
2021/10/22 08:04:44;;;;;;;29.20;16.10;;;;;;;15.07;75.77;95269.53;5053058;28;20450;-84
2021/10/22 08:07:11;;;;;;;29.37;17.27;;;;;;;15.30;74.89;95276.06;5053006;28;20446;-84
2021/10/22 08:09:38;;;;;;;29.60;17.13;;;;;;;15.26;75.58;95269.41;5066966;28;20443;-84
2021/10/22 08:12:06;;;;;;;22.07;16.93;;;;;;;15.30;75.81;95273.41;5052614;28;20504;-85
2021/10/22 08:14:33;;;;;;;23.70;15.73;;;;;;;15.08;75.19;95274.69;5052083;28;20442;-85
2021/10/22 08:17:00;;;;;;;24.50;17.10;;;;;;;15.16;75.77;95263.34;5052508;28;20444;-84
2021/10/22 08:19:28;;;;;;;24.00;18.37;;;;;;;15.28;75.72;95270.09;5052688;28;20983;-84
2021/10/22 08:24:37;;;;;;;26.00;17.37;;;;;;;15.34;74.82;95274.81;5052999;28;20442;-84
2021/10/22 08:27:04;;;;;;;21.30;17.13;;;;;;;15.37;75.83;95271.03;5035036;28;20446;-84
2021/10/22 08:29:33;;;;;;;23.67;17.30;;;;;;;15.31;75.99;95271.59;5051628;28;20517;-84
2021/10/22 08:32:00;;;;;;;24.90;17.67;;;;;;;15.40;75.69;95266.25;5053168;28;20478;-84
2021/10/22 08:34:27;;;;;;;23.17;17.37;;;;;;;15.43;75.25;95268.59;5053295;28;20453;-84
2021/10/22 08:36:56;;;;;;;22.90;17.53;;;;;;;15.55;74.44;95274.50;5052786;28;20485;-85
2021/10/22 08:39:23;;;;;;;21.37;15.40;;;;;;;15.63;74.75;95282.56;5053077;28;20434;-85
2021/10/22 08:41:53;;;;;;;22.53;15.87;;;;;;;15.52;73.33;95273.97;5053053;28;20863;-85
2021/10/22 08:44:21;;;;;;;21.30;16.40;;;;;;;15.48;74.89;95276.09;5052911;28;20956;-84
2021/10/22 08:46:48;;;;;;;21.70;16.47;;;;;;;15.68;74.77;95279.44;5053320;28;20541;-85
2021/10/22 08:49:16;;;;;;;22.77;16.70;;;;;;;15.77;74.57;95279.38;5053026;28;20504;-85
2021/10/22 08:51:44;;;;;;;25.00;17.13;;;;;;;15.88;74.00;95274.81;5052874;28;20439;-83
2021/10/22 08:54:12;;;;;;;21.40;17.10;;;;;;;15.86;74.11;95274.97;5053035;28;20452;-83
2021/10/22 08:56:41;;;;;;;28.53;17.30;;;;;;;15.85;74.09;95275.13;5052646;28;20485;-85
2021/10/22 08:59:07;;;;;;;24.90;16.50;;;;;;;15.82;73.59;95270.97;5053214;28;20445;-83
2021/10/22 09:01:35;;;;;;;22.17;15.83;;;;;;;15.93;73.98;95277.84;5053320;28;20434;-83
2021/10/22 09:04:03;;;;;;;24.23;17.03;;;;;;;16.00;74.27;95276.25;5053063;28;20961;-83
2021/10/22 09:06:50;;;;;;;24.93;15.90;;;;;;;16.02;73.02;95272.47;5053063;28;20450;-84
2021/10/22 09:09:20;;;;;;;22.77;15.97;;;;;;;16.05;72.47;95272.16;5053033;28;20442;-84
2021/10/22 09:11:49;;;;;;;19.00;14.63;;;;;;;16.11;73.34;95271.53;5052756;28;20436;-83
2021/10/22 09:14:18;;;;;;;20.20;14.60;;;;;;;16.17;72.73;95271.88;5055777;28;20462;-83
2021/10/22 09:16:48;;;;;;;20.87;14.30;;;;;;;16.18;71.67;95270.91;5038179;28;20524;-83
2021/10/22 09:19:28;;;;;;;17.53;14.43;;;;;;;16.31;72.00;95271.34;5056803;28;20450;-83
2021/10/22 09:21:57;;;;;;;35.13;16.50;;;;;;;16.40;70.73;95257.97;5056559;28;20906;-84
2021/10/22 09:24:26;;;;;;;20.40;14.03;;;;;;;16.52;69.52;95263.84;5056791;28;20438;-85
2021/10/22 09:26:55;;;;;;;15.50;13.80;;;;;;;16.64;70.16;95259.09;5056122;28;20449;-81
2021/10/22 09:29:25;;;;;;;19.97;15.00;;;;;;;16.47;69.12;95260.00;5021494;28;20447;-84
2021/10/22 09:31:53;;;;;;;17.23;14.13;;;;;;;16.50;68.91;95260.53;5056212;28;20509;-84
2021/10/22 09:34:31;;;;;;;18.07;13.63;;;;;;;16.51;69.11;95250.78;5055960;28;20922;-83
2021/10/22 09:36:59;;;;;;;16.27;13.30;;;;;;;16.61;70.13;95251.47;5056063;28;20477;-83
2021/10/22 09:39:34;;;;;;;21.10;14.87;;;;;;;16.78;69.00;95253.25;5056393;28;20438;-83
2021/10/22 09:42:02;;;;;;;17.80;13.20;;;;;;;16.87;68.60;95256.78;5056255;28;20436;-85
2021/10/22 09:51:35;;;;;;;20.00;12.40;;;;;;;17.26;67.68;95246.44;5056116;28;20924;-84
2021/10/22 09:54:04;;;;;;;26.33;12.77;;;;;;;17.41;68.36;95244.00;5056584;28;20514;-84
2021/10/22 09:56:32;;;;;;;16.63;13.80;;;;;;;17.15;67.50;95244.09;5056055;28;20472;-84
2021/10/22 09:59:03;;;;;;;22.90;14.07;;;;;;;17.29;68.65;95233.69;5056437;28;20435;-84
2021/10/22 10:01:49;;;;;;;19.23;13.27;;;;;;;17.40;68.78;95243.19;5037634;28;20441;-84
2021/10/22 10:04:16;;;;;;;19.10;14.13;;;;;;;17.53;68.02;95237.38;5033774;28;20442;-84
2021/10/22 10:06:44;;;;;;;19.10;13.80;;;;;;;17.64;67.65;95237.06;5033721;28;20459;-84
2021/10/22 10:09:13;;;;;;;19.80;13.80;;;;;;;17.69;67.15;95229.47;5033686;28;20806;-84
2021/10/22 10:11:42;;;;;;;18.60;13.30;;;;;;;17.61;66.95;95224.94;5033508;28;20431;-82
2021/10/22 10:14:11;;;;;;;20.10;13.90;;;;;;;17.62;67.92;95223.94;5033650;28;20435;-84
2021/10/22 10:16:40;;;;;;;15.13;12.60;;;;;;;17.63;66.88;95219.47;4985037;28;20532;-84
2021/10/22 10:19:10;;;;;;;17.60;13.63;;;;;;;17.37;66.64;95218.81;5033328;28;20443;-84
2021/10/22 10:21:54;;;;;;;18.80;13.90;;;;;;;17.30;66.92;95214.13;5033418;28;20538;-84
2021/10/22 10:24:29;;;;;;;16.33;12.73;;;;;;;17.40;66.71;95221.13;4984289;28;20435;-84
2021/10/22 10:27:06;;;;;;;18.37;12.60;;;;;;;17.32;66.53;95219.25;5033276;28;20946;-84
2021/10/22 10:29:35;;;;;;;20.63;12.80;;;;;;;17.26;66.67;95220.75;5013755;28;20630;-84
2021/10/22 10:32:04;;;;;;;18.13;12.23;;;;;;;17.33;67.09;95211.13;5013118;28;20483;-84
2021/10/22 10:34:43;;;;;;;17.03;12.63;;;;;;;17.46;67.34;95210.69;5013403;28;20983;-83
2021/10/22 10:37:29;;;;;;;51.77;14.13;;;;;;;17.59;67.29;95210.19;5013697;28;20883;-83
2021/10/22 10:40:05;;;;;;;22.20;12.33;;;;;;;17.75;66.94;95204.09;5012985;28;20944;-83
2021/10/22 10:42:38;;;;;;;16.10;12.90;;;;;;;17.81;66.28;95204.25;5034212;28;20961;-83
2021/10/22 10:45:09;;;;;;;19.30;13.10;;;;;;;17.85;65.61;95207.41;5050955;28;20515;-84
2021/10/22 10:47:50;;;;;;;15.40;12.43;;;;;;;17.99;66.58;95205.91;5054882;28;20922;-84
2021/10/22 10:50:23;;;;;;;18.83;12.70;;;;;;;18.11;66.87;95197.41;5054921;28;20430;-84
2021/10/22 10:52:59;;;;;;;15.33;12.83;;;;;;;18.21;65.22;95191.91;5055496;28;20824;-83
2021/10/22 10:55:29;;;;;;;21.30;14.60;;;;;;;18.24;65.86;95183.63;5054786;28;20438;-84
2021/10/22 10:58:01;;;;;;;21.50;13.47;;;;;;;18.24;65.93;95175.66;5036695;28;20991;-84
2021/10/22 11:00:31;;;;;;;21.27;14.90;;;;;;;18.25;66.46;95179.97;5054696;28;20518;-83
2021/10/22 11:03:15;;;;;;;19.13;14.57;;;;;;;18.24;66.92;95176.47;5055096;28;20438;-84
2021/10/22 11:06:10;;;;;;;17.13;13.50;;;;;;;18.26;66.09;95168.34;5054630;28;20533;-84
2021/10/22 11:08:43;;;;;;;23.07;14.37;;;;;;;18.34;65.56;95162.16;5055168;28;20457;-84
2021/10/22 11:11:27;;;;;;;14.17;12.07;;;;;;;18.37;64.76;95146.72;5054480;28;20497;-84
2021/10/22 11:13:58;;;;;;;19.90;13.77;;;;;;;18.48;65.75;95151.63;5054605;28;20491;-84
2021/10/22 11:16:35;;;;;;;20.80;14.03;;;;;;;18.62;66.22;95151.94;5054615;28;20475;-84
2021/10/22 11:19:05;;;;;;;17.33;14.17;;;;;;;18.74;65.10;95147.91;5054803;28;20430;-84
2021/10/22 11:21:34;;;;;;;16.20;14.33;;;;;;;18.81;64.25;95147.06;5054431;28;20478;-84
2021/10/22 11:24:03;;;;;;;32.00;15.17;;;;;;;18.93;65.44;95136.84;5054572;28;20439;-84
2021/10/22 11:26:30;;;;;;;25.80;14.10;;;;;;;19.13;65.23;95132.75;5054226;28;20438;-85
2021/10/22 11:29:01;;;;;;;21.40;14.33;;;;;;;19.22;64.44;95138.00;5054101;28;20929;-84
2021/10/22 11:31:39;;;;;;;18.47;14.07;;;;;;;19.33;63.87;95132.25;5019202;28;20980;-85
2021/10/22 11:34:08;;;;;;;22.63;15.00;;;;;;;19.44;63.27;95134.53;5054142;28;20446;-85
2021/10/22 11:36:36;;;;;;;25.27;14.40;;;;;;;19.54;62.57;95129.78;5053258;28;20474;-84
2021/10/22 11:39:04;;;;;;;29.93;15.33;;;;;;;19.68;62.77;95121.03;5054140;28;20445;-85
2021/10/22 11:41:31;;;;;;;15.20;13.70;;;;;;;19.56;61.37;95117.13;5054200;28;20490;-85
2021/10/22 11:44:09;;;;;;;20.57;13.67;;;;;;;19.45;61.49;95125.53;5053774;28;20446;-85
2021/10/22 11:46:44;;;;;;;20.23;13.50;;;;;;;19.59;61.13;95127.41;5053880;28;20445;-85
2021/10/22 11:49:23;;;;;;;15.67;12.10;;;;;;;19.57;62.50;95113.47;5053652;28;20519;-84
2021/10/22 11:51:53;;;;;;;19.27;13.97;;;;;;;19.57;62.82;95121.44;5055019;28;20934;-85